Time;durP1;ratioP1;P1;durP2;ratioP2;P2;SDS_P1;SDS_P2;PMS_P1;PMS_P2;Temp;Humidity;BMP_temperature;BMP_pressure;BME280_temperature;BME280_humidity;BME280_pressure;Samples;Min_cycle;Max_cycle;Signal;HPM_P1;HPM_P2
2022/06/22 00:00:25;;;;;;;10.88;9.20;;;;;;;;;;5012959;28;20022;-74
2022/06/22 00:02:52;;;;;;;14.77;9.07;;;;;;;;;;5053324;28;20033;-86
2022/06/22 00:05:21;;;;;;;19.02;9.57;;;;;;;;;;5053943;28;20049;-82
2022/06/22 00:07:58;;;;;;;11.25;8.77;;;;;;;;;;5053765;28;20020;-82
2022/06/22 00:10:30;;;;;;;10.40;8.93;;;;;;;;;;5053647;28;20017;-83
2022/06/22 00:12:57;;;;;;;9.52;8.52;;;;;;;;;;5053762;28;20031;-83
2022/06/22 00:15:23;;;;;;;11.98;8.15;;;;;;;;;;5053607;28;20028;-84
2022/06/22 00:17:49;;;;;;;8.10;7.30;;;;;;;;;;5053467;28;20427;-70
2022/06/22 00:20:25;;;;;;;10.75;8.50;;;615.30;2432.00;;;;;;5053867;28;20031;-85
2022/06/22 00:22:51;;;;;;;13.38;8.35;;;;;;;;;;5053329;28;20033;-77
2022/06/22 00:25:22;;;;;;;10.25;7.90;;;;;;;;;;5053372;28;20123;-82
2022/06/22 00:27:48;;;;;;;9.38;7.18;;;;;;;;;;5053485;28;20017;-82
2022/06/22 00:30:40;;;;;;;9.07;7.68;;;;;;;;;;5053340;28;20028;-81
2022/06/22 00:33:12;;;;;;;12.07;8.23;;;;;;;;;;5049652;28;20045;-78
2022/06/22 00:35:43;;;;;;;8.95;8.05;;;;;;;;;;5035458;28;20021;-81
2022/06/22 00:38:14;;;;;;;12.77;9.00;;;;;;;;;;5053299;28;20028;-83
2022/06/22 00:40:40;;;;;;;10.52;8.50;;;;;;;;;;5053235;28;20033;-81
2022/06/22 00:43:07;;;;;;;10.07;8.73;;;;;;;;;;5053430;28;20130;-80
2022/06/22 00:45:34;;;;;;;12.68;8.80;;;;;;;;;;5053070;28;20028;-78
2022/06/22 00:48:03;;;;;;;10.38;9.15;;;;;;;;;;5053294;28;20021;-84
2022/06/22 00:50:36;;;;;;;8.98;8.07;;;;;;;;;;5053131;28;20025;-83
2022/06/22 00:53:04;;;;;;;9.90;8.35;;;;;;;;;;5053242;28;20033;-82
2022/06/22 00:55:32;;;;;;;13.93;8.02;;;;;;;;;;5053229;28;20055;-82
2022/06/22 00:58:03;;;;;;;11.85;8.38;;;;;;;;;;5035547;28;20078;-83
2022/06/22 01:00:31;;;;;;;11.82;8.48;;;;;;;;;;5035159;28;20075;-84
2022/06/22 01:03:05;;;;;;;10.25;9.02;;;;;;;;;;5053528;28;20029;-73
2022/06/22 01:05:52;;;;;;;12.27;9.02;;;;;;;;;;5053153;28;20060;-84
2022/06/22 01:08:25;;;;;;;11.40;7.97;;;;;;;;;;5053146;28;20063;-82
2022/06/22 01:11:01;;;;;;;8.90;7.57;;;;;;;;;;5053155;28;20368;-81
2022/06/22 01:13:37;;;;;;;9.27;8.25;;;;;;;;;;5055828;28;20047;-84
2022/06/22 01:16:05;;;;;;;13.63;8.38;;;;;;;;;;5057051;28;20497;-86
2022/06/22 01:18:31;;;;;;;11.95;8.55;;;;;;;;;;5056711;28;20025;-84
2022/06/22 01:21:04;;;;;;;16.90;9.02;;;;;;;;;;5056682;28;20037;-77
2022/06/22 01:23:30;;;;;;;10.55;8.77;;;;;;;;;;5038611;28;20044;-80
2022/06/22 01:26:17;;;;;;;10.85;8.70;;;;;;;;;;5056410;28;20021;-81
2022/06/22 01:28:50;;;;;;;11.85;8.45;;;;;;;;;;5056405;28;20502;-84
2022/06/22 01:31:17;;;;;;;10.30;8.43;;;;;;;;;;5056760;28;20156;-85
2022/06/22 01:33:51;;;;;;;13.77;8.40;;;;;;;;;;5057059;28;20033;-84
2022/06/22 01:36:21;;;;;;;10.68;8.70;;;;;;;;;;5056770;28;20032;-83
2022/06/22 01:38:47;;;;;;;10.43;9.00;;;;;;;;;;5056600;28;20029;-76
2022/06/22 01:41:32;;;;;;;13.85;8.38;;;;;;;;;;5055980;28;20035;-80
2022/06/22 01:44:01;;;;;;;10.98;8.25;;;;;;;;;;5056227;28;20043;-82
2022/06/22 01:46:38;;;;;;;8.70;7.80;;;;;;;;;;5055742;28;20025;-81
2022/06/22 01:49:07;;;;;;;13.30;8.30;;;;;;;;;;5055936;28;20029;-70
2022/06/22 01:51:38;;;;;;;12.02;8.27;;;;;;;;;;5055715;28;20025;-80
2022/06/22 01:54:06;;;;;;;9.23;8.10;;;;;;;;;;5055767;28;20029;-81
2022/06/22 01:56:37;;;;;;;9.40;7.93;;;614.50;2432.00;;;;;;5055806;28;20577;-78
2022/06/22 01:59:31;;;;;;;11.15;8.45;;;614.50;2432.00;;;;;;5055695;28;20104;-77
2022/06/22 02:02:14;;;;;;;9.18;7.28;;;614.60;2432.00;;;;;;5055645;28;20033;-91
2022/06/22 02:04:58;;;;;;;9.15;7.55;;;614.50;2432.00;;;;;;5058155;28;20046;-95
2022/06/22 02:07:44;;;;;;;9.88;6.88;;;614.50;2432.00;;;;;;5056394;28;20025;-80
2022/06/22 02:10:29;;;;;;;8.43;5.82;;;614.40;2432.00;;;;;;5056418;28;20029;-83
2022/06/22 02:13:02;;;;;;;8.52;7.30;;;614.40;2432.00;;;;;;5056055;28;20032;-79
2022/06/22 02:15:39;;;;;;;11.38;7.63;;;614.50;2432.00;;;;;;5056200;28;20644;-82
2022/06/22 02:18:13;;;;;;;9.80;7.25;;;614.50;2432.00;;;;;;5055908;28;20103;-81
2022/06/22 02:20:40;;;;;;;9.20;7.65;;;614.40;2432.00;;;;;;5055882;28;20060;-83
2022/06/22 02:23:15;;;;;;;8.52;7.25;;;614.40;2432.00;;;;;;5056026;28;20044;-82
2022/06/22 02:25:48;;;;;;;11.00;7.78;;;614.40;2432.00;;;;;;5054895;28;20053;-86
2022/06/22 02:28:14;;;;;;;12.40;6.95;;;614.40;2432.00;;;;;;5055807;28;20056;-79
2022/06/22 02:30:42;;;;;;;10.65;8.20;;;589.70;2432.00;;;;;;5054972;28;20052;-74
2022/06/22 02:33:09;;;;;;;9.98;7.63;;;589.70;2432.00;;;;;;5055029;28;20025;-79
2022/06/22 02:35:37;;;;;;;11.77;8.40;;;589.70;2432.00;;;;;;5042031;28;20025;-77
2022/06/22 02:38:07;;;;;;;9.32;8.43;;;614.40;2432.00;;;;;;5035293;28;20045;-77
2022/06/22 02:44:29;;;;;;;10.90;7.55;;;614.40;2432.00;;;;;;5034972;28;20022;-76
2022/06/22 02:46:16;;;;;;;10.75;7.90;;;589.70;2432.00;;;;;;5034790;28;20036;-76
2022/06/22 02:48:45;;;;;;;10.25;7.68;;;589.70;2432.00;;;;;;5034849;28;20025;-77
2022/06/22 02:51:28;;;;;;;9.25;7.38;;;589.70;2432.00;;;;;;5034589;28;20033;-72
2022/06/22 02:53:56;;;;;;;8.43;7.32;;;589.70;2432.00;;;;;;5034768;28;20402;-80
2022/06/22 02:56:31;;;;;;;9.80;8.13;;;589.70;2432.00;;;;;;5034805;28;20030;-80
2022/06/22 02:58:57;;;;;;;12.38;7.45;;;589.70;2432.00;;;;;;5017049;28;20032;-80
2022/06/22 03:01:29;;;;;;;9.70;7.97;;;589.70;2432.00;;;;;;5041749;28;20461;-78
2022/06/22 03:04:02;;;;;;;12.38;7.35;;;589.70;2432.00;;;;;;5054418;28;20479;-79
2022/06/22 03:06:33;;;;;;;10.73;7.20;;;589.60;2432.00;;;;;;5054402;28;20040;-78
2022/06/22 03:09:02;;;;;;;9.77;7.83;;;589.60;2432.00;;;;;;5054509;28;20021;-79
2022/06/22 03:11:28;;;;;;;11.75;7.50;;;589.70;2432.00;;;;;;5041667;28;20095;-79
2022/06/22 03:14:20;;;;;;;11.77;8.25;;;589.60;2432.00;;;;;;5034330;28;20025;-79
2022/06/22 03:16:53;;;;;;;11.40;8.05;;;589.60;2432.00;;;;;;5022989;28;20404;-77
2022/06/22 03:19:33;;;;;;;9.27;7.20;;;589.60;2432.00;;;;;;5014543;28;20021;-79
2022/06/22 03:21:59;;;;;;;8.48;7.10;;;614.40;2432.00;;;;;;5014346;28;20042;-78
2022/06/22 03:24:41;;;;;;;9.35;6.75;;;589.70;2432.00;;;;;;5014390;28;20022;-73
2022/06/22 03:27:20;;;;;;;10.13;6.50;;;589.60;2432.00;;;;;;5014304;28;20377;-74
2022/06/22 03:30:17;;;;;;;8.55;5.72;;;589.60;2432.00;;;;;;5014656;28;20022;-79
2022/06/22 03:32:50;;;;;;;10.70;6.90;;;;;;;;;;5049021;28;20037;-78
2022/06/22 03:35:22;;;;;;;8.88;5.68;;;;;;;;;;5053760;28;20025;-80
2022/06/22 03:37:50;;;;;;;8.48;5.22;;;;;;;;;;5053698;28;20021;-80
2022/06/22 03:40:20;;;;;;;9.60;5.15;;;;;;;;;;5053849;28;20471;-81
2022/06/22 03:42:51;;;;;;;7.90;5.60;;;;;;;;;;5035906;28;20072;-80
2022/06/22 03:45:17;;;;;;;;;;;;;;;;;;5054244;28;20366;-81
2022/06/22 03:47:57;;;;;;;7.72;5.18;;;;;;;;;;5053535;28;19921;-80
2022/06/22 03:50:23;;;;;;;13.98;4.95;;;;;;;;;;5053539;28;20051;-80
2022/06/22 03:53:01;;;;;;;8.88;5.50;;;;;;;;;;5053973;28;20025;-82
2022/06/22 03:55:29;;;;;;;10.88;6.05;;;;;;;;;;5053838;28;20025;-82
2022/06/22 03:57:56;;;;;;;10.45;6.47;;;;;;;;;;5053751;28;20052;-82
2022/06/22 04:00:22;;;;;;;14.38;6.55;;;;;;;;;;5053532;28;20434;-75
2022/06/22 04:02:49;;;;;;;8.07;5.65;;;;;;;;;;5053963;28;19913;-86
2022/06/22 04:05:25;;;;;;;10.75;6.13;;;614.70;2380.80;;;;;;5054008;28;20045;-85
2022/06/22 04:07:53;;;;;;;9.45;5.55;;;614.50;2380.80;;;;;;5035760;28;20499;-75
2022/06/22 04:10:44;;;;;;;7.15;5.35;;;614.40;2355.20;;;;;;5031325;28;20476;-74
2022/06/22 04:13:18;;;;;;;7.80;5.43;;;614.40;2355.20;;;;;;5013510;28;20036;-74
2022/06/22 04:15:55;;;;;;;8.90;6.05;;;614.40;2355.20;;;;;;5013387;28;20106;-79
2022/06/22 04:18:32;;;;;;;8.60;5.68;;;589.70;2380.80;;;;;;5013419;28;20309;-77
2022/06/22 04:21:04;;;;;;;14.00;6.05;;;589.70;2380.80;;;;;;5013394;28;20033;-72
2022/06/22 04:23:41;;;;;;;7.53;6.05;;;589.70;2406.40;;;;;;5026947;28;20030;-74
2022/06/22 04:26:23;;;;;;;7.03;5.78;;;614.40;2406.40;;;;;;5033326;28;20021;-79
2022/06/22 04:28:55;;;;;;;11.48;6.03;;;614.50;2406.40;;;;;;5033099;28;20025;-79
2022/06/22 04:31:31;;;;;;;19.33;8.10;;;614.50;2406.40;;;;;;5027180;28;20087;-77
2022/06/22 04:34:07;;;;;;;15.32;7.60;;;614.60;2406.40;;;;;;5013280;28;20032;-79
2022/06/22 04:36:45;;;;;;;13.13;7.25;;;614.60;2406.40;;;;;;5031206;28;20109;-78
2022/06/22 04:39:17;;;;;;;10.63;7.32;;;614.60;2406.40;;;;;;5029440;28;20535;-79
2022/06/22 04:41:43;;;;;;;11.85;7.75;;;;;;;;;;5032573;28;20116;-79
2022/06/22 04:44:13;;;;;;;11.05;6.72;;;;;;;;;;5033151;28;20032;-82
2022/06/22 04:46:43;;;;;;;19.38;7.07;;;614.90;2380.80;;;;;;5014415;28;20116;-86
2022/06/22 04:49:36;;;;;;;16.20;5.95;;;614.80;2380.80;;;;;;5037995;28;20419;-72
2022/06/22 04:52:15;;;;;;;11.23;6.40;;;614.80;2355.20;;;;;;5033593;28;20037;-84
2022/06/22 04:54:44;;;;;;;14.60;6.63;;;614.80;2355.20;;;;;;5038716;28;20048;-86
2022/06/22 04:57:31;;;;;;;11.52;6.00;;;614.80;2329.60;;;;;;5032244;28;20025;-89
2022/06/22 05:00:00;;;;;;;8.10;5.25;;;;;;;;;;5033154;28;20052;-88
2022/06/22 05:02:28;;;;;;;9.18;5.68;;;;;;;;;;5036562;28;20483;-82
2022/06/22 05:04:57;;;;;;;11.60;5.40;;;;;;;;;;5039083;28;20049;-81
2022/06/22 05:07:29;;;;;;;9.93;5.30;;;;;;;;;;5020977;28;20044;-82
2022/06/22 05:10:01;;;;;;;9.15;4.85;;;;;;;;;;5039711;28;20518;-82
2022/06/22 05:12:29;;;;;;;12.88;5.32;;;;;;;;;;5021832;28;20034;-82
2022/06/22 05:14:57;;;;;;;11.82;5.13;;;;;;;;;;5039662;28;20021;-81
2022/06/22 05:17:34;;;;;;;12.55;5.28;;;;;;;;;;5039451;28;20021;-82
2022/06/22 05:20:19;;;;;;;9.32;5.03;;;;;;;;;;5039558;28;20036;-83
2022/06/22 05:22:46;;;;;;;13.25;5.40;;;;;;;;;;5039506;28;20064;-83
2022/06/22 05:25:13;;;;;;;8.70;4.85;;;;;;;;;;5039345;28;20029;-82
2022/06/22 05:27:57;;;;;;;26.67;11.88;;;;;;;;;;5039278;28;20029;-82
2022/06/22 05:30:23;;;;;;;8.35;4.13;;;;;;;;;;5039204;28;20036;-81
2022/06/22 05:32:54;;;;;;;11.00;3.83;;;;;;;;;;5039302;28;20021;-80
2022/06/22 05:35:30;;;;;;;7.68;3.78;;;640.00;1792.00;;;;;;5039198;28;20033;-82
2022/06/22 05:37:59;;;;;;;5.00;2.55;;;640.10;1792.00;;;;;;5039229;28;20496;-81
2022/06/22 05:40:28;;;;;;;6.15;2.42;;;640.00;1766.40;;;;;;5039433;28;20029;-80
2022/06/22 05:42:55;;;;;;;10.18;3.35;;;640.00;1740.80;;;;;;5039439;28;20033;-82
2022/06/22 05:45:26;;;;;;;5.13;2.67;;;640.10;1766.40;;;;;;5039364;28;20063;-82
2022/06/22 05:47:53;;;;;;;7.55;3.08;;;;;;;;;;5039274;28;20081;-78
2022/06/22 05:50:19;;;;;;;10.07;3.58;;;;;;;;;;5038991;28;20029;-81
2022/06/22 05:52:47;;;;;;;16.70;8.18;;;;;;;;;;5039123;28;20441;-81
2022/06/22 05:55:34;;;;;;;6.72;3.22;;;;;;;;;;5039112;28;20068;-81
2022/06/22 05:58:29;;;;;;;5.60;3.72;;;;;;;;;;5022241;28;20483;-81
2022/06/22 06:00:56;;;;;;;5.40;4.38;;;;;;;;;;4936005;28;20075;-82
2022/06/22 06:03:25;;;;;;;7.10;3.00;;;;;;;;;;4936310;29;20083;-80
2022/06/22 06:06:18;;;;;;;10.00;3.63;;;;;;;;;;4936260;29;20135;-81
2022/06/22 06:08:45;;;;;;;12.75;3.60;;;;;;;;;;4933790;29;20067;-80
2022/06/22 06:11:20;;;;;;;9.75;3.15;;;;;;;;;;4936432;29;20192;-81
2022/06/22 06:13:48;;;;;;;7.85;4.05;;;;;;;;;;4936485;29;20032;-82
2022/06/22 06:16:24;;;;;;;8.13;3.83;;;;;;;;;;4936519;29;20040;-81
2022/06/22 06:18:52;;;;;;;9.75;3.50;;;;;;;;;;4936187;29;20505;-82
2022/06/22 06:21:22;;;;;;;9.00;2.80;;;;;;;;;;4936215;29;20038;-72
2022/06/22 06:23:49;;;;;;;11.50;3.63;;;;;;;;;;4936172;29;20067;-82
2022/06/22 06:29:09;;;;;;;6.05;2.65;;;;;;;;;;4936183;29;20471;-81
2022/06/22 06:32:10;;;;;;;7.30;2.90;;;;;;;;;;4920252;29;20031;-73
2022/06/22 06:34:43;;;;;;;6.50;3.25;;;;;;;;;;4879548;29;20033;-81
2022/06/22 06:37:12;;;;;;;9.48;3.58;;;;;;;;;;4904462;29;20048;-82
2022/06/22 06:39:42;;;;;;;8.00;3.90;;;;;;;;;;4935875;29;20506;-82
2022/06/22 06:42:17;;;;;;;7.15;3.35;;;;;;;;;;4935825;29;20052;-82
2022/06/22 06:44:43;;;;;;;6.50;3.78;;;;;;;;;;4935790;29;20035;-80
2022/06/22 06:47:17;;;;;;;9.73;4.03;;;;;;;;;;4935859;29;20505;-82
2022/06/22 06:49:50;;;;;;;13.40;3.92;;;;;;;;;;4935900;29;20143;-82
2022/06/22 06:52:16;;;;;;;11.18;3.20;;;;;;;;;;4935890;29;20035;-70
2022/06/22 06:55:08;;;;;;;6.38;3.70;;;;;;;;;;4935625;29;20087;-82
2022/06/22 06:57:35;;;;;;;6.90;3.38;;;;;;;;;;4900388;29;20418;-81
2022/06/22 07:00:04;;;;;;;7.72;3.28;;;;;;;;;;4935713;29;20039;-82
2022/06/22 07:02:30;;;;;;;7.03;4.25;;;;;;;;;;4935598;29;20425;-78
2022/06/22 07:04:57;;;;;;;6.65;3.58;;;;;;;;;;4935296;29;20513;-81
2022/06/22 07:07:39;;;;;;;14.13;3.17;;;;;;;;;;4936760;28;20059;-82
2022/06/22 07:10:10;;;;;;;3.90;2.53;;;;;;;;;;5016564;28;20148;-77
2022/06/22 07:12:40;;;;;;;15.05;10.70;;;;;;;;;;5034997;28;20371;-82
2022/06/22 07:15:06;;;;;;;7.18;3.03;;;;;;;;;;5034752;28;20030;-83
2022/06/22 07:17:33;;;;;;;10.50;2.90;;;;;;;;;;5034759;28;20100;-83
2022/06/22 07:20:05;;;;;;;6.85;3.47;;;;;;;;;;5034356;28;20017;-82
2022/06/22 07:22:31;;;;;;;9.55;3.72;;;;;;;;;;5034701;28;20077;-79
2022/06/22 07:25:16;;;;;;;4.22;2.40;;;;;;;;;;5034464;28;20535;-82
2022/06/22 07:27:46;;;;;;;5.97;2.55;;;;;;;;;;5034405;28;20068;-77
2022/06/22 07:30:21;;;;;;;7.13;3.33;;;;;;;;;;5034245;28;20554;-81
2022/06/22 07:33:09;;;;;;;11.20;4.50;;;;;;;;;;5034083;28;20100;-82
2022/06/22 07:35:44;;;;;;;9.55;3.55;;;;;;;;;;5016323;28;20057;-78
2022/06/22 07:38:26;;;;;;;6.03;3.13;;;;;;;;;;5034122;28;20068;-82
2022/06/22 07:43:37;;;;;;;9.02;4.65;;;;;;;;;;5033941;28;20076;-82
2022/06/22 07:46:05;;;;;;;5.45;3.05;;;;;;;;;;5016129;28;20423;-82
2022/06/22 07:48:34;;;;;;;6.63;3.45;;;;;;;;;;5033953;28;20028;-82
2022/06/22 07:51:02;;;;;;;10.73;6.88;;;;;;;;;;5033952;28;20026;-76
2022/06/22 07:53:28;;;;;;;4.70;3.00;;;;;;;;;;5033703;28;20084;-80
2022/06/22 07:56:00;;;;;;;5.20;3.20;;;;;;;;;;5033886;28;20035;-82
2022/06/22 07:58:35;;;;;;;18.40;5.53;;;;;;;;;;5033640;28;20021;-82
2022/06/22 08:01:11;;;;;;;10.90;5.75;;;;;;;;;;5016029;28;20471;-77
2022/06/22 08:03:44;;;;;;;7.72;3.47;;;;;;;;;;5033345;28;20041;-79
2022/06/22 08:06:13;;;;;;;7.93;3.83;;;;;;;;;;5033460;28;20044;-77
2022/06/22 08:08:53;;;;;;;9.88;4.50;;;;;;;;;;5015623;28;20442;-75
2022/06/22 08:11:39;;;;;;;6.45;2.60;;;;;;;;;;5033696;28;20076;-83
2022/06/22 08:14:05;;;;;;;5.80;2.97;;;;;;;;;;5033447;28;20034;-83
2022/06/22 08:16:34;;;;;;;7.90;3.42;;;;;;;;;;5033469;28;20025;-83
2022/06/22 08:19:01;;;;;;;5.78;4.45;;;;;;;;;;5033509;28;20025;-82
2022/06/22 08:21:27;;;;;;;9.10;5.20;;;;;;;;;;5032974;28;20037;-82
2022/06/22 08:23:54;;;;;;;13.25;3.80;;;;;;;;;;5033026;28;20052;-81
2022/06/22 08:26:23;;;;;;;6.65;3.47;;;;;;;;;;5033388;28;20036;-82
2022/06/22 08:28:50;;;;;;;7.10;4.28;;;;;;;;;;5033410;28;20029;-83
2022/06/22 08:31:16;;;;;;;6.60;3.50;;;;;;;;;;5033354;28;20028;-82
2022/06/22 08:33:47;;;;;;;7.50;2.85;;;;;;;;;;5033147;28;20079;-75
2022/06/22 08:36:17;;;;;;;8.77;3.65;;;;;;;;;;5033147;28;20022;-82
2022/06/22 08:39:18;;;;;;;8.93;2.70;;;;;;;;;;5033142;28;20030;-81
2022/06/22 08:41:44;;;;;;;;;;;;;;;;;;4934593;29;20044;-83
2022/06/22 08:44:11;;;;;;;6.35;3.28;;;;;;;;;;4934019;29;19957;-83
2022/06/22 08:46:55;;;;;;;12.35;3.33;;;;;;;;;;4933891;29;20043;-82
2022/06/22 08:49:39;;;;;;;9.27;4.07;;;;;;;;;;4933594;29;20036;-81
2022/06/22 08:52:11;;;;;;;9.13;5.25;;;;;;;;;;4917809;29;20542;-79
2022/06/22 08:54:56;;;;;;;6.65;3.45;;;;;;;;;;4933862;29;20383;-75
2022/06/22 08:57:22;;;;;;;8.27;3.67;;;;;;;;;;4933958;29;20039;-83
2022/06/22 08:59:51;;;;;;;8.05;3.05;;;;;;;;;;4933547;29;20031;-74
2022/06/22 09:02:20;;;;;;;6.70;3.42;;;;;;;;;;4933561;29;20075;-82
2022/06/22 09:04:54;;;;;;;10.07;3.50;;;;;;;;;;4933404;29;20051;-82
2022/06/22 09:07:32;;;;;;;4.57;3.13;;;;;;;;;;4933767;29;20486;-82
2022/06/22 09:10:26;;;;;;;8.20;4.90;;;;;;;;;;4933587;29;20036;-82
2022/06/22 09:13:00;;;;;;;5.40;3.25;;;;;;;;;;4933982;29;20068;-81
2022/06/22 09:15:29;;;;;;;12.32;3.85;;;;;;;;;;4972582;28;20395;-81
2022/06/22 09:18:10;;;;;;;5.88;3.13;;;;;;;;;;5033294;28;20029;-82
2022/06/22 09:20:41;;;;;;;11.18;3.75;;;;;;;;;;5032696;28;20038;-82
2022/06/22 09:23:10;;;;;;;11.50;7.20;;;;;;;;;;5032815;28;20036;-82
2022/06/22 09:25:49;;;;;;;10.18;3.42;;;;;;;;;;5032577;28;20045;-82
2022/06/22 09:28:15;;;;;;;11.48;4.20;;;;;;;;;;5032992;28;20384;-77
2022/06/22 09:30:41;;;;;;;8.02;3.92;;;;;;;;;;5032814;28;20021;-82
2022/06/22 09:33:25;;;;;;;6.97;3.47;;;;;;;;;;5033227;28;20021;-81
2022/06/22 09:36:00;;;;;;;6.65;2.90;;;;;;;;;;5036508;28;20025;-82
2022/06/22 09:38:36;;;;;;;9.45;4.28;;;;;;;;;;5036389;28;20021;-80
2022/06/22 09:41:08;;;;;;;6.70;3.97;;;;;;;;;;5036378;28;20076;-78
2022/06/22 09:43:53;;;;;;;5.07;2.80;;;;;;;;;;5036345;28;20108;-82
2022/06/22 09:46:19;;;;;;;7.38;3.50;;;;;;;;;;5036156;28;20021;-82
2022/06/22 09:48:54;;;;;;;7.30;4.47;;;;;;;;;;5036014;28;20074;-82
2022/06/22 09:51:44;;;;;;;7.15;3.08;;;;;;;;;;5036236;28;20495;-81
2022/06/22 09:57:16;;;;;;;6.55;3.45;;;;;;;;;;5036335;28;20530;-82
2022/06/22 09:59:42;;;;;;;4.97;2.83;;;;;;;;;;5036040;28;20029;-80
2022/06/22 10:02:30;;;;;;;7.82;3.40;;;;;;;;;;5035803;28;20033;-80
2022/06/22 10:04:56;;;;;;;7.80;3.38;;;;;;;;;;5035598;28;20133;-82
2022/06/22 10:07:41;;;;;;;6.97;3.30;;;;;;;;;;5035884;28;20091;-81
2022/06/22 10:10:24;;;;;;;10.07;3.47;;;;;;;;;;5035805;28;20176;-82
2022/06/22 10:13:09;;;;;;;7.53;2.65;;;;;;;;;;5035644;28;20026;-80
2022/06/22 10:15:47;;;;;;;10.35;3.35;;;;;;;;;;5035711;28;20048;-70
2022/06/22 10:18:25;;;;;;;5.28;2.90;;;;;;;;;;5036021;28;20060;-82
2022/06/22 10:20:59;;;;;;;4.05;2.65;;;;;;;;;;5035439;28;20220;-80
2022/06/22 10:23:31;;;;;;;5.10;2.78;;;;;;;;;;5035696;28;20376;-82
2022/06/22 10:26:06;;;;;;;7.35;3.00;;;;;;;;;;5035433;28;20022;-83
2022/06/22 10:28:32;;;;;;;7.90;4.22;;;;;;;;;;5035651;28;20034;-82
2022/06/22 10:31:01;;;;;;;12.32;7.63;;;;;;;;;;5035375;28;20029;-82
2022/06/22 10:33:46;;;;;;;8.60;3.05;;;;;;;;;;5035276;28;20022;-82
2022/06/22 10:36:30;;;;;;;12.40;4.22;;;;;;;;;;5035150;28;20048;-76
2022/06/22 10:38:56;;;;;;;4.43;2.78;;;;;;;;;;5035409;28;20024;-82
2022/06/22 10:47:19;;;;;;;3.65;3.20;;;;;;;;;;5035021;28;20036;-70
2022/06/22 10:50:04;;;;;;;7.72;2.95;;;;;;;;;;5035122;28;20036;-80
2022/06/22 10:52:48;;;;;;;8.57;3.22;;;;;;;;;;5034860;28;20037;-82
2022/06/22 10:55:20;;;;;;;7.63;3.10;;;;;;;;;;5034927;28;20090;-82
2022/06/22 10:58:05;;;;;;;8.43;2.92;;;;;;;;;;5034781;28;20109;-82
2022/06/22 11:00:46;;;;;;;8.35;3.25;;;;;;;;;;5034609;28;20025;-77
2022/06/22 11:03:15;;;;;;;;;;;;;;;;;;5035215;28;20391;-72
2022/06/22 11:05:41;;;;;;;5.78;3.38;;;;;;;;;;5034516;28;20375;-74
2022/06/22 11:08:36;;;;;;;5.35;2.97;;;;;;;;;;5034635;28;20507;-78
2022/06/22 11:11:13;;;;;;;6.07;3.22;;;;;;;;;;4935381;29;20047;-74
2022/06/22 11:13:57;;;;;;;4.35;2.88;;;;;;;;;;4935385;29;20039;-70
2022/06/22 11:16:26;;;;;;;6.38;3.58;;;;;;;;;;4919251;29;20573;-82
2022/06/22 11:19:02;;;;;;;5.10;2.85;;;;;;;;;;4935169;29;20035;-77
2022/06/22 11:21:31;;;;;;;6.90;3.38;;;;;;;;;;4934953;29;20055;-82
2022/06/22 11:24:00;;;;;;;4.72;2.85;;;;;;;;;;4935063;29;20032;-71
2022/06/22 11:32:41;;;;;;;10.25;3.42;;;;;;;;;;4935037;29;20079;-82
2022/06/22 11:35:26;;;;;;;7.00;3.60;;;;;;;;;;4934827;29;20040;-81
2022/06/22 11:37:52;;;;;;;6.45;3.50;;;;;;;;;;4935050;29;20118;-79
2022/06/22 11:40:37;;;;;;;7.07;3.70;;;;;;;;;;4918710;28;20039;-82
2022/06/22 11:43:35;;;;;;;14.32;6.90;;;;;;;;;;4934779;29;20047;-81
2022/06/22 11:46:05;;;;;;;8.88;3.85;;;;;;;;;;4878019;29;20455;-81
2022/06/22 11:48:40;;;;;;;9.70;4.00;;;;;;;;;;4932003;29;20403;-79
2022/06/22 11:51:09;;;;;;;6.72;4.65;;;;;;;;;;4934293;29;20036;-73
2022/06/22 11:53:38;;;;;;;8.68;5.80;;;;;;;;;;4934503;29;20455;-80
2022/06/22 11:56:22;;;;;;;9.93;5.35;;;;;;;;;;4934333;29;20479;-81
2022/06/22 11:59:03;;;;;;;9.32;4.53;;;;;;;;;;4934224;29;20067;-82
2022/06/22 12:01:28;;;;;;;;;;;;;;;;;;4934445;28;20129;-81
2022/06/22 12:04:00;;;;;;;9.60;4.63;;;;;;;;;;4918186;29;19993;-70
2022/06/22 12:06:52;;;;;;;6.72;4.07;;;;;;;;;;4934153;29;20039;-81
2022/06/22 12:09:21;;;;;;;5.45;3.72;;;;;;;;;;4934173;29;20054;-81
2022/06/22 12:11:47;;;;;;;8.57;3.72;;;;;;;;;;4934284;29;20068;-82
2022/06/22 12:17:15;;;;;;;11.95;3.97;;;;;;;;;;4934522;29;20517;-82
2022/06/22 12:19:44;;;;;;;13.45;7.07;;;;;;;;;;4934255;29;20027;-82
2022/06/22 12:22:19;;;;;;;9.40;4.82;;;;;;;;;;5007329;28;20049;-70
2022/06/22 12:24:57;;;;;;;9.90;4.20;;;;;;;;;;5033333;28;20026;-82
2022/06/22 12:27:29;;;;;;;6.80;4.03;;;;;;;;;;5033316;28;20049;-81
2022/06/22 12:30:18;;;;;;;7.07;4.00;;;;;;;;;;5033209;28;20480;-82
2022/06/22 12:32:49;;;;;;;5.63;4.10;;;;;;;;;;5033178;28;20029;-82
2022/06/22 12:35:16;;;;;;;6.55;3.90;;;;;;;;;;5033011;28;20528;-71
2022/06/22 12:37:48;;;;;;;9.77;4.93;;;;;;;;;;5033217;28;20033;-81
2022/06/22 12:40:21;;;;;;;13.35;6.10;;;;;;;;;;5033146;28;20033;-82
2022/06/22 12:42:56;;;;;;;10.20;4.30;;;;;;;;;;5033191;28;20033;-83
2022/06/22 12:45:28;;;;;;;6.63;4.40;;;;;;;;;;5033192;28;20053;-82
2022/06/22 12:48:00;;;;;;;6.60;4.80;;;;;;;;;;5033212;28;20036;-83
2022/06/22 12:50:45;;;;;;;7.18;4.50;;;;;;;;;;5033273;28;20152;-82
2022/06/22 12:53:14;;;;;;;5.82;4.45;;;;;;;;;;5033149;28;20026;-82
2022/06/22 12:55:45;;;;;;;10.75;4.95;;;;;;;;;;5032920;28;20030;-82
2022/06/22 12:58:15;;;;;;;8.05;4.30;;;;;;;;;;5033206;28;20032;-82
2022/06/22 13:00:42;;;;;;;6.63;4.70;;;;;;;;;;5032865;28;20103;-82
2022/06/22 13:03:13;;;;;;;7.80;4.82;;;;;;;;;;5033017;28;20048;-82
2022/06/22 13:05:40;;;;;;;8.85;4.70;;;;;;;;;;5032876;28;20037;-82
2022/06/22 13:08:08;;;;;;;11.95;4.53;;;;;;;;;;5033369;28;20476;-82
2022/06/22 13:10:35;;;;;;;7.65;4.95;;;;;;;;;;5036959;28;20035;-80
2022/06/22 13:13:04;;;;;;;5.80;4.75;;;;;;;;;;5036800;28;20033;-82
2022/06/22 13:15:31;;;;;;;7.78;4.88;;;;;;;;;;5036886;28;20056;-82
2022/06/22 13:18:04;;;;;;;10.52;5.03;;;;;;;;;;5036626;28;20021;-82
2022/06/22 13:20:40;;;;;;;6.22;4.82;;;;;;;;;;5036691;28;20128;-82
2022/06/22 13:23:19;;;;;;;6.63;4.70;;;;;;;;;;5036534;28;20045;-76
2022/06/22 13:25:52;;;;;;;5.93;4.70;;;;;;;;;;5036547;28;20022;-76
2022/06/22 13:28:21;;;;;;;9.90;5.70;;;;;;;;;;5036860;28;20464;-81
2022/06/22 13:30:55;;;;;;;14.35;6.65;;;;;;;;;;5036499;28;20025;-82
2022/06/22 13:33:21;;;;;;;7.28;4.97;;;;;;;;;;5036346;28;20553;-77
2022/06/22 13:35:50;;;;;;;9.93;4.75;;;;;;;;;;5036259;28;20025;-74
2022/06/22 13:38:37;;;;;;;10.50;4.97;;;;;;;;;;5036476;28;20025;-82
2022/06/22 13:41:21;;;;;;;5.97;4.53;;;;;;;;;;5036556;28;20032;-79
2022/06/22 13:43:55;;;;;;;10.85;5.07;;;;;;;;;;5036391;28;20435;-82
2022/06/22 13:46:40;;;;;;;6.85;4.50;;;;;;;;;;5036281;28;20435;-82
2022/06/22 13:49:09;;;;;;;5.32;4.70;;;;;;;;;;5036151;28;20075;-82
2022/06/22 13:51:50;;;;;;;11.68;5.13;;;;;;;;;;5018334;28;20372;-80
2022/06/22 13:54:34;;;;;;;7.03;4.45;;;;;;;;;;5036247;28;20476;-82
2022/06/22 13:57:16;;;;;;;9.40;5.22;;;;;;;;;;5036053;28;20066;-83
2022/06/22 13:59:45;;;;;;;12.07;5.95;;;;;;;;;;5036277;28;20492;-82
2022/06/22 14:02:17;;;;;;;9.27;4.90;;;;;;;;;;5035975;28;20041;-83
2022/06/22 14:05:02;;;;;;;7.43;4.60;;;;;;;;;;5035860;28;20395;-70
2022/06/22 14:07:50;;;;;;;6.20;5.05;;;;;;;;;;5036192;28;20025;-82
2022/06/22 14:10:22;;;;;;;11.25;5.22;;;;;;;;;;5036124;28;20052;-82
2022/06/22 14:12:50;;;;;;;7.03;4.80;;;;;;;;;;5035922;28;20388;-83
2022/06/22 14:15:19;;;;;;;8.88;4.82;;;;;;;;;;5035955;28;20034;-82
2022/06/22 14:18:10;;;;;;;8.00;4.50;;;;;;;;;;5035944;28;20029;-82
2022/06/22 14:20:51;;;;;;;8.50;6.13;;;;;;;;;;5034593;28;20037;-82
2022/06/22 14:23:18;;;;;;;7.88;5.63;;;;;;;;;;5035783;28;20041;-82
2022/06/22 14:25:48;;;;;;;10.25;5.05;;;;;;;;;;5035815;28;20423;-83
2022/06/22 14:28:37;;;;;;;9.00;7.03;;;;;;;;;;5035512;28;20100;-83
2022/06/22 14:31:16;;;;;;;10.63;5.43;;;;;;;;;;5035471;28;20036;-81
2022/06/22 14:33:45;;;;;;;12.70;4.95;;;;;;;;;;5035640;28;20024;-81
2022/06/22 14:36:26;;;;;;;9.23;5.25;;;;;;;;;;5035237;28;20029;-83
2022/06/22 14:38:52;;;;;;;9.43;5.65;;;;;;;;;;5035397;28;20105;-80
2022/06/22 14:41:24;;;;;;;8.25;5.68;;;;;;;;;;5035120;28;20553;-82
2022/06/22 14:43:55;;;;;;;11.82;5.28;;;;;;;;;;5035734;28;20029;-83
2022/06/22 14:46:38;;;;;;;6.38;5.10;;;;;;;;;;5035342;28;20022;-83
2022/06/22 14:49:20;;;;;;;8.95;5.63;;;;;;;;;;5035431;28;20021;-83
2022/06/22 14:51:46;;;;;;;12.82;5.30;;;;;;;;;;5035475;28;20037;-82
2022/06/22 14:54:17;;;;;;;9.40;5.13;;;;;;;;;;5017147;28;20121;-85
2022/06/22 14:57:09;;;;;;;8.63;5.43;;;;;;;;;;5034963;28;20022;-81
2022/06/22 14:59:50;;;;;;;10.73;5.30;;;;;;;;;;4935590;29;20491;-83
2022/06/22 15:02:45;;;;;;;8.40;5.40;;;;;;;;;;4935651;29;20191;-83
2022/06/22 15:05:17;;;;;;;8.50;5.38;;;;;;;;;;4923377;29;20051;-82
2022/06/22 15:07:43;;;;;;;7.43;5.93;;;;;;;;;;4935368;29;20028;-82
2022/06/22 15:10:19;;;;;;;9.40;5.38;;;;;;;;;;4935616;29;20123;-79
2022/06/22 15:13:07;;;;;;;9.70;5.57;;;;;;;;;;4935626;29;20122;-82
2022/06/22 15:15:48;;;;;;;8.60;6.40;;;;;;;;;;4935474;29;20028;-82